Главная страница
METAR-TAF:

METAR-TAF

Аэропорты :

Линчёпинг, Швеция

широта: 58-24N, долгота: 015-41E, высота над уровнем моря: 52 м

Текущие метеонаблюдения

Эта сводка был подготовлена 32 минут назад, в 05:20 UTC
Ветер 8 Узел от южный
Температура 16°C
Влажность 88%
Давление 1003 hPa
Видимость 10 км и более
Нет облачности ниже 1500 м, и нет кучево-дождевой облачности

METAR: ESSL 210520Z 19008KT CAVOK 16/14 Q1003

Время: 07:52 (05:52 UTC)

Прогноз

Эта сводка был подготовлена 1 час и 2 минут назад, в 04:50 UTC
Прогноз действительный с 21-го 05 UTC до 21-го 14 UTC
Ветер 10 Узел от южный с порывами до 18 Узел
Видимость 10 км и более
Нет облачности ниже 1500 м, и нет кучево-дождевой облачности
изменения
С 21-го 07 UTC до 21-го 09 UTC
Ветер 15 Узел от южный с порывами до 25 Узел
изменения
С 21-го 09 UTC до 21-го 11 UTC
Ветер 19 Узел от южный с порывами до 30 Узел

TAF: ESSL 210450Z 2105/2114 17010G18KT CAVOK BECMG 2107/2109 18015G25KT BECMG 2109/2111 18019G30KT RMK MIL

Метеонаблюдения и прогнозы для более 4000 аэропортов (сводки METAR и TAF).

Имеющиеся станции представлены на карте желтыми и красными точками.

Чтобы увидеть название станции, наведите на нее мышь.

Затем щелкните, чтобы увидеть метеонаблюдения и метеопрогнозы.

Управление картой: чтобы увеличить масштаб, щелкните зеленые кнопки с черным крестиком; чтобы уменьшить масштаб, щелкните зеленую кнопку с тире; для просмотра соседних карт щелкайте зеленые стрелки.


METAR-TAF: